This is the latest recevied weather packets stored in our database for station/object EA1DB-1. If no packets are shown the sender has not sent any weather packets the latest 10 day(s).
| Time | Temp. | Humidity | Pressure | Rain* | Wind** | Luminosity | Snow |
|---|---|---|---|---|---|---|---|
| 1777596706 | 12.78° C | 85% | 1015.5 hPa | 0 mm | - | - | - |
| 1777596083 | 13.33° C | 85% | 1015.6 hPa | 0 mm | - | - | - |
| 1777594306 | 13.89° C | 85% | 1015.8 hPa | 0 mm | - | - | - |
| 1777591284 | 13.89° C | 84% | 1015.6 hPa | 0 mm | - | - | - |
| 1777586483 | 15° C | 83% | 1015.4 hPa | 0 mm | - | - | - |
| 1777585926 | 15° C | 81% | 1015.4 hPa | 0 mm | - | - | - |
| 1777583506 | 15° C | 77% | 1015.3 hPa | 0 mm | - | - | - |
| 1777579907 | 15.56° C | 75% | 1014.7 hPa | 0 mm | - | - | - |
| 1777578706 | 15.56° C | 73% | 1014.4 hPa | 0 mm | - | - | - |
| 1777577506 | 16.11° C | 73% | 1014.2 hPa | 0 mm | - | - | - |
| 1777572707 | 16.67° C | 71% | 1013.7 hPa | 0 mm | - | - | - |
| 1777566082 | 17.22° C | 71% | 1013.5 hPa | 0 mm | - | - | - |
| 1777565507 | 17.22° C | 70% | 1013.4 hPa | 0 mm | - | - | - |
| 1777563740 | 18.33° C | 67% | 1013.4 hPa | 0 mm | - | - | - |
| 1777561282 | 17.22° C | 70% | 1013.4 hPa | 0 mm | - | - | - |
| 1777560706 | 17.22° C | 68% | 1013.4 hPa | 0 mm | - | - | - |
| 1777559506 | 17.22° C | 71% | 1013.2 hPa | 0 mm | - | - | - |
| 1777555282 | 17.78° C | 70% | 1013.3 hPa | 0 mm | - | - | - |
| 1777551106 | 16.67° C | 73% | 1012.9 hPa | 0 mm | - | - | - |
| 1777540306 | 16.67° C | 72% | 1011.8 hPa | 0 mm | - | - | - |
| 1777538346 | 16.67° C | 72% | 1011.4 hPa | 0 mm | - | - | - |
| 1777536994 | 16.11° C | 74% | 1011.3 hPa | 0 mm | - | - | - |
| 1777532194 | 15° C | 78% | 1010.6 hPa | 0 mm | - | - | - |
| 1777530994 | 15° C | 79% | 1010.3 hPa | 0 mm | - | - | - |
| 1777523169 | 14.44° C | 84% | 1009.4 hPa | 0 mm | - | - | - |
* Rain latest hour (hover to see other rain measurements)
** Current wind speed in m/s (hover to see current wind gust speed)